Time;durP1;ratioP1;P1;durP2;ratioP2;P2;SDS_P1;SDS_P2;PMS_P1;PMS_P2;Temp;Humidity;BMP_temperature;BMP_pressure;BME280_temperature;BME280_humidity;BME280_pressure;Samples;Min_cycle;Max_cycle;Signal;HPM_P1;HPM_P2
2022/01/08 00:02:20;;;;;;;4.70;3.30;;;1.90;99.90;;;;;;5087275;28;20311;-71
2022/01/08 00:04:47;;;;;;;3.77;2.87;;;1.80;99.90;;;;;;5079528;28;20205;-71
2022/01/08 00:07:14;;;;;;;4.33;3.07;;;1.90;99.90;;;;;;5082334;28;20224;-71
2022/01/08 00:09:42;;;;;;;4.70;3.50;;;1.80;99.90;;;;;;5091658;28;20531;-71
2022/01/08 00:12:09;;;;;;;4.70;3.00;;;1.90;99.90;;;;;;5092561;28;20743;-71
2022/01/08 00:14:36;;;;;;;5.37;3.63;;;2.00;99.90;;;;;;5076560;28;20198;-71
2022/01/08 00:17:04;;;;;;;5.90;3.80;;;2.00;99.90;;;;;;5093457;28;20205;-71
2022/01/08 00:19:30;;;;;;;5.03;3.20;;;2.00;99.90;;;;;;5091551;28;20190;-71
2022/01/08 00:21:57;;;;;;;4.93;3.23;;;2.00;99.90;;;;;;5087735;28;20213;-71
2022/01/08 00:24:24;;;;;;;4.93;3.57;;;2.00;99.90;;;;;;5091752;28;20206;-71
2022/01/08 00:26:52;;;;;;;6.40;3.80;;;2.10;99.90;;;;;;5078945;28;20674;-71
2022/01/08 00:29:19;;;;;;;8.30;3.83;;;2.10;99.90;;;;;;5082409;28;20214;-71
2022/01/08 00:31:46;;;;;;;6.83;4.20;;;2.10;99.90;;;;;;5085847;28;20212;-71
2022/01/08 00:34:13;;;;;;;6.73;4.33;;;2.10;99.90;;;;;;5084544;28;20562;-71
2022/01/08 00:36:40;;;;;;;7.77;4.67;;;2.10;99.90;;;;;;5078018;28;20225;-71
2022/01/08 00:39:07;;;;;;;7.87;4.73;;;2.20;99.90;;;;;;5087121;28;20190;-71
2022/01/08 00:41:34;;;;;;;8.83;5.10;;;2.20;99.90;;;;;;5092917;28;20194;-71
2022/01/08 00:44:02;;;;;;;8.20;5.23;;;2.20;99.90;;;;;;5086172;28;20202;-71
2022/01/08 00:46:28;;;;;;;10.27;5.17;;;2.20;99.90;;;;;;5092477;28;20190;-71
2022/01/08 00:48:55;;;;;;;6.67;4.80;;;2.10;99.90;;;;;;5093100;28;20224;-71
2022/01/08 00:51:22;;;;;;;9.50;6.17;;;2.10;99.90;;;;;;5091702;28;20283;-71
2022/01/08 00:53:49;;;;;;;9.23;5.40;;;2.10;99.90;;;;;;5082261;28;20201;-70
2022/01/08 00:56:16;;;;;;;7.70;4.83;;;2.10;99.90;;;;;;5087071;28;20198;-71
2022/01/08 00:58:43;;;;;;;7.67;5.00;;;2.00;99.90;;;;;;5081926;28;20206;-71
2022/01/08 01:01:11;;;;;;;8.07;4.87;;;2.00;99.90;;;;;;5077116;28;20198;-71
2022/01/08 01:03:38;;;;;;;6.67;4.30;;;1.90;99.90;;;;;;5090361;28;20198;-71
2022/01/08 01:06:06;;;;;;;7.50;4.97;;;2.00;99.90;;;;;;5092315;28;20212;-71
2022/01/08 01:08:33;;;;;;;7.90;5.10;;;2.00;99.90;;;;;;5091199;28;20190;-71
2022/01/08 01:11:00;;;;;;;6.87;4.93;;;2.00;99.90;;;;;;5089232;28;20214;-71
2022/01/08 01:13:27;;;;;;;8.60;5.67;;;1.90;99.90;;;;;;5088454;28;20206;-71
2022/01/08 01:15:54;;;;;;;7.50;4.97;;;1.90;99.90;;;;;;5091020;28;20197;-71
2022/01/08 01:18:22;;;;;;;9.53;5.27;;;1.90;99.90;;;;;;5089389;28;20666;-71
2022/01/08 01:20:50;;;;;;;9.27;5.53;;;2.00;99.90;;;;;;5091887;28;20198;-71
2022/01/08 01:23:20;;;;;;;8.80;5.40;;;1.90;99.90;;;;;;5079704;28;20294;-71
2022/01/08 01:25:51;;;;;;;10.23;5.00;;;1.90;99.90;;;;;;5084465;28;20232;-71
2022/01/08 01:28:35;;;;;;;7.80;5.27;;;1.90;99.90;;;;;;5086693;28;20209;-71
2022/01/08 01:47:56;;;;;;;9.17;5.13;;;2.10;99.90;;;;;;5082217;28;20207;-71
2022/01/08 01:50:25;;;;;;;9.07;5.17;;;2.00;99.90;;;;;;5083954;28;20589;-71
2022/01/08 01:52:52;;;;;;;8.97;5.10;;;2.10;99.90;;;;;;5072126;28;20202;-71
2022/01/08 01:55:19;;;;;;;8.73;5.20;;;2.00;99.90;;;;;;5082713;28;20228;-71
2022/01/08 01:57:48;;;;;;;8.23;5.10;;;2.00;99.90;;;;;;5085918;28;20658;-71
2022/01/08 02:00:15;;;;;;;9.80;5.40;;;2.10;99.90;;;;;;5092014;28;20220;-71
2022/01/08 02:02:42;;;;;;;8.53;5.10;;;2.10;99.90;;;;;;5085041;28;20211;-71
2022/01/08 02:05:10;;;;;;;8.03;5.30;;;2.10;99.90;;;;;;5079578;28;20676;-71
2022/01/08 02:07:38;;;;;;;8.07;5.37;;;2.00;99.90;;;;;;5085586;28;20204;-71
2022/01/08 02:10:06;;;;;;;8.67;5.80;;;2.10;99.90;;;;;;5077080;28;20634;-71
2022/01/08 02:12:34;;;;;;;8.50;5.47;;;2.10;99.90;;;;;;5090498;28;20212;-71
2022/01/08 02:15:01;;;;;;;10.77;6.33;;;2.10;99.90;;;;;;5071490;28;20202;-71
2022/01/08 02:17:28;;;;;;;12.33;7.53;;;2.10;99.90;;;;;;5085144;28;20197;-71
2022/01/08 02:19:57;;;;;;;14.10;7.60;;;2.20;99.90;;;;;;5073353;28;20644;-71
2022/01/08 02:22:23;;;;;;;11.87;7.00;;;2.20;99.90;;;;;;5078117;28;20208;-71
2022/01/08 02:24:51;;;;;;;14.90;7.50;;;2.20;99.90;;;;;;5084516;28;20194;-71
2022/01/08 02:27:18;;;;;;;12.00;6.83;;;2.20;99.90;;;;;;5073034;28;20636;-71
2022/01/08 02:29:46;;;;;;;14.80;7.57;;;2.20;99.90;;;;;;5081088;28;20308;-71
2022/01/08 02:32:15;;;;;;;13.57;7.87;;;2.30;99.90;;;;;;5089696;28;20240;-71
2022/01/08 02:34:44;;;;;;;14.97;7.90;;;2.30;99.90;;;;;;5072253;28;20213;-71
2022/01/08 02:37:13;;;;;;;14.60;7.47;;;2.30;99.90;;;;;;5073370;28;20252;-71
2022/01/08 02:39:43;;;;;;;15.20;7.87;;;2.30;99.90;;;;;;5072230;28;20201;-71
2022/01/08 02:42:12;;;;;;;15.37;8.03;;;2.30;99.90;;;;;;5078338;28;20644;-71
2022/01/08 02:44:42;;;;;;;15.20;7.13;;;2.40;99.90;;;;;;5090883;28;20304;-71
2022/01/08 02:47:09;;;;;;;13.93;7.70;;;2.40;99.90;;;;;;5094302;28;20675;-71
2022/01/08 02:49:37;;;;;;;16.63;8.30;;;2.30;99.90;;;;;;5092827;28;20232;-71
2022/01/08 02:52:05;;;;;;;17.37;8.10;;;2.30;99.90;;;;;;5088859;28;20205;-71
2022/01/08 02:54:33;;;;;;;15.57;7.70;;;2.30;99.90;;;;;;5090493;28;20194;-71
2022/01/08 02:57:00;;;;;;;14.33;8.00;;;2.30;99.90;;;;;;5091249;28;20206;-71
2022/01/08 02:59:27;;;;;;;14.33;7.77;;;2.30;99.90;;;;;;5092814;28;20204;-71
2022/01/08 03:01:54;;;;;;;14.27;8.53;;;2.40;99.90;;;;;;5092364;28;20206;-71
2022/01/08 03:04:21;;;;;;;14.37;7.13;;;2.30;99.90;;;;;;5095145;28;20205;-71
2022/01/08 03:06:48;;;;;;;14.73;8.13;;;2.30;99.90;;;;;;5090014;28;20680;-71
2022/01/08 03:09:15;;;;;;;15.03;8.07;;;2.30;99.90;;;;;;5084279;28;20212;-71
2022/01/08 03:11:43;;;;;;;15.03;8.20;;;2.30;99.90;;;;;;5093773;28;20233;-71
2022/01/08 03:14:10;;;;;;;16.50;8.50;;;2.30;99.90;;;;;;5089649;28;20205;-71
2022/01/08 03:16:38;;;;;;;15.77;8.60;;;2.30;99.90;;;;;;5090856;28;20837;-71
2022/01/08 03:19:10;;;;;;;17.50;8.80;;;2.30;99.90;;;;;;5082350;28;20213;-71
2022/01/08 03:21:41;;;;;;;15.80;8.80;;;2.30;99.90;;;;;;5086674;28;20194;-71
2022/01/08 03:24:10;;;;;;;15.33;8.47;;;2.30;99.90;;;;;;5080499;28;20206;-71
2022/01/08 03:26:37;;;;;;;18.23;8.67;;;2.30;99.90;;;;;;5088052;28;20201;-71
2022/01/08 03:29:06;;;;;;;17.03;9.57;;;2.40;99.90;;;;;;5093844;28;20202;-71
2022/01/08 03:31:33;;;;;;;17.27;9.83;;;2.40;99.90;;;;;;5078221;28;20222;-74
2022/01/08 03:34:00;;;;;;;21.87;10.60;;;2.40;99.90;;;;;;5093762;28;20198;-74
2022/01/08 03:36:27;;;;;;;21.37;10.57;;;2.40;99.90;;;;;;5091497;28;20204;-74
2022/01/08 03:38:54;;;;;;;21.67;11.87;;;2.50;99.90;;;;;;5079976;28;20197;-74
2022/01/08 03:41:22;;;;;;;22.30;11.63;;;2.60;99.90;;;;;;5086007;28;20198;-75
2022/01/08 03:43:50;;;;;;;21.00;11.77;;;2.60;99.90;;;;;;5093578;28;20206;-74
2022/01/08 03:46:20;;;;;;;20.17;11.33;;;2.60;99.90;;;;;;5093037;28;20198;-74
2022/01/08 03:49:13;;;;;;;21.97;10.60;;;2.60;99.90;;;;;;5081530;28;20554;-75
2022/01/08 03:51:35;;;;;;;23.57;12.17;;;2.60;99.90;;;;;;5092502;28;20213;-74
2022/01/08 03:54:02;;;;;;;21.20;11.60;;;2.60;99.90;;;;;;5088264;28;20288;-74
2022/01/08 03:56:29;;;;;;;20.80;11.70;;;2.60;99.90;;;;;;5094484;28;20193;-75
2022/01/08 03:58:56;;;;;;;21.97;12.03;;;2.60;99.90;;;;;;5074677;28;20213;-75
2022/01/08 04:01:24;;;;;;;22.47;12.60;;;2.60;99.90;;;;;;5086920;28;20198;-75
2022/01/08 04:03:51;;;;;;;22.40;12.33;;;2.70;99.90;;;;;;5094418;28;20544;-75
2022/01/08 04:06:18;;;;;;;22.33;12.10;;;2.60;99.90;;;;;;5085829;28;20203;-75
2022/01/08 04:08:44;;;;;;;21.40;11.83;;;2.50;99.90;;;;;;5074396;28;20206;-74
2022/01/08 04:11:11;;;;;;;21.73;12.37;;;2.40;99.90;;;;;;5083821;28;20222;-74
2022/01/08 04:13:40;;;;;;;23.27;12.20;;;2.40;99.90;;;;;;5086795;28;20213;-75
2022/01/08 04:16:11;;;;;;;25.97;12.30;;;2.30;99.90;;;;;;5092176;28;20281;-75
2022/01/08 04:18:40;;;;;;;21.37;12.63;;;2.20;99.90;;;;;;5090590;28;20206;-74
2022/01/08 04:21:30;;;;;;;22.93;12.60;;;2.10;99.90;;;;;;5074474;28;20199;-74
2022/01/08 04:24:00;;;;;;;21.83;12.77;;;2.10;99.90;;;;;;5073899;28;20255;-74
2022/01/08 04:26:27;;;;;;;22.60;11.63;;;2.00;99.90;;;;;;5080191;28;20679;-75
2022/01/08 04:28:55;;;;;;;23.10;12.40;;;2.00;99.90;;;;;;5093559;28;20209;-74
2022/01/08 04:31:22;;;;;;;22.30;12.33;;;2.00;99.90;;;;;;5092205;28;20562;-75
2022/01/08 04:33:51;;;;;;;21.03;11.87;;;2.00;99.90;;;;;;5084560;28;20205;-75
2022/01/08 04:36:18;;;;;;;23.03;12.33;;;2.00;99.90;;;;;;5085063;28;20657;-75
2022/01/08 04:38:45;;;;;;;23.03;12.23;;;2.10;99.90;;;;;;5081369;28;20198;-75
2022/01/08 04:41:12;;;;;;;25.87;13.00;;;2.20;99.90;;;;;;5083709;28;20464;-75
2022/01/08 04:43:43;;;;;;;23.60;12.87;;;2.10;99.90;;;;;;5090279;28;20204;-75
2022/01/08 04:46:11;;;;;;;26.77;13.80;;;2.10;99.90;;;;;;5078449;28;20285;-75
2022/01/08 04:48:38;;;;;;;23.67;12.93;;;2.10;99.90;;;;;;5089427;28;20205;-74
2022/01/08 04:51:06;;;;;;;23.93;12.50;;;2.10;99.90;;;;;;5089222;28;20248;-75
2022/01/08 04:53:33;;;;;;;21.13;12.57;;;2.20;99.90;;;;;;5091319;28;20198;-75
2022/01/08 04:56:00;;;;;;;23.83;13.30;;;2.20;99.90;;;;;;5093297;28;20197;-75
2022/01/08 04:58:28;;;;;;;25.90;14.33;;;2.30;99.90;;;;;;5084452;28;20202;-75
2022/01/08 05:00:54;;;;;;;22.53;13.27;;;2.20;99.90;;;;;;5082082;28;20280;-75
2022/01/08 05:03:22;;;;;;;21.77;11.53;;;2.20;99.90;;;;;;5090833;28;20206;-75
2022/01/08 05:05:48;;;;;;;25.77;13.17;;;2.20;99.90;;;;;;5085620;28;20198;-74
2022/01/08 05:08:17;;;;;;;24.83;13.20;;;2.10;99.90;;;;;;5089760;28;20233;-75
2022/01/08 05:10:44;;;;;;;22.23;12.70;;;2.20;99.90;;;;;;5074107;28;20221;-75
2022/01/08 05:13:10;;;;;;;26.50;13.17;;;2.20;99.90;;;;;;5089248;28;20206;-75
2022/01/08 05:15:38;;;;;;;25.07;12.80;;;2.20;99.90;;;;;;5079080;28;20593;-75
2022/01/08 05:18:07;;;;;;;23.77;13.07;;;2.20;99.90;;;;;;5083493;28;20649;-75
2022/01/08 05:20:37;;;;;;;25.27;13.50;;;2.20;99.90;;;;;;5083170;28;20285;-75
2022/01/08 05:23:04;;;;;;;35.90;20.17;;;2.10;99.90;;;;;;5092068;28;20197;-75
2022/01/08 05:25:33;;;;;;;25.57;14.17;;;2.10;99.90;;;;;;5082399;28;20695;-75
2022/01/08 05:28:00;;;;;;;27.00;14.93;;;2.10;99.90;;;;;;5077604;28;20204;-75
2022/01/08 05:30:28;;;;;;;26.83;13.97;;;2.10;99.90;;;;;;5073765;28;20435;-75
2022/01/08 05:32:56;;;;;;;28.07;15.10;;;2.00;99.90;;;;;;5087022;28;20206;-75
2022/01/08 05:35:24;;;;;;;30.47;14.43;;;1.90;99.90;;;;;;5088586;28;20213;-75
2022/01/08 05:37:51;;;;;;;24.80;13.00;;;1.80;99.90;;;;;;5084740;28;20199;-75
2022/01/08 05:40:18;;;;;;;28.30;13.83;;;1.80;99.90;;;;;;5078009;28;20247;-75
2022/01/08 05:42:46;;;;;;;26.90;14.57;;;1.70;99.90;;;;;;5084266;28;20198;-75
2022/01/08 05:45:14;;;;;;;25.30;14.13;;;1.70;99.90;;;;;;5086532;28;20208;-75
2022/01/08 05:47:41;;;;;;;28.73;14.77;;;1.60;99.90;;;;;;5087733;28;20205;-75
2022/01/08 05:50:09;;;;;;;28.90;15.30;;;1.60;99.90;;;;;;5073521;28;20204;-75
2022/01/08 05:52:36;;;;;;;29.87;16.37;;;1.60;99.90;;;;;;5073563;28;20216;-75
2022/01/08 05:55:03;;;;;;;32.87;16.70;;;1.60;99.90;;;;;;5085485;28;20195;-74
2022/01/08 05:57:30;;;;;;;32.33;16.07;;;1.60;99.90;;;;;;5078317;28;20220;-74
2022/01/08 05:59:58;;;;;;;29.43;15.73;;;1.50;99.90;;;;;;5090617;28;20202;-75
2022/01/08 06:02:25;;;;;;;29.30;14.63;;;1.50;99.90;;;;;;5079442;28;20289;-75
2022/01/08 06:04:52;;;;;;;31.53;14.17;;;1.40;99.90;;;;;;5089718;28;20205;-75
2022/01/08 06:07:19;;;;;;;32.30;16.00;;;1.40;99.90;;;;;;5080519;28;20631;-75
2022/01/08 06:09:46;;;;;;;32.77;16.20;;;1.50;99.90;;;;;;5083153;28;20205;-75
2022/01/08 06:12:13;;;;;;;33.50;16.40;;;1.40;99.90;;;;;;5090578;28;20751;-75
2022/01/08 06:14:40;;;;;;;33.13;15.60;;;1.40;99.90;;;;;;5081064;28;20565;-75
2022/01/08 06:17:08;;;;;;;32.53;15.53;;;1.50;99.90;;;;;;5084900;28;20204;-75
2022/01/08 06:19:35;;;;;;;30.87;16.33;;;1.50;99.90;;;;;;5090083;28;20204;-75
2022/01/08 06:22:02;;;;;;;36.27;16.47;;;1.60;99.90;;;;;;5088070;28;20193;-75
2022/01/08 06:24:29;;;;;;;37.50;17.67;;;1.60;99.90;;;;;;5089026;28;20211;-75
2022/01/08 06:26:56;;;;;;;31.17;15.20;;;1.60;99.90;;;;;;5075757;28;20216;-75
2022/01/08 06:29:23;;;;;;;31.63;14.93;;;1.70;99.90;;;;;;5077086;28;20202;-75
2022/01/08 06:31:50;;;;;;;30.97;15.83;;;1.80;99.90;;;;;;5084872;28;20220;-75
2022/01/08 06:34:18;;;;;;;33.50;16.57;;;1.80;99.90;;;;;;5090673;28;20208;-75
2022/01/08 06:36:45;;;;;;;25.60;13.30;;;1.80;99.90;;;;;;5091255;28;20643;-75
2022/01/08 06:39:12;;;;;;;29.07;14.70;;;1.90;99.90;;;;;;5096021;28;20571;-74
2022/01/08 06:41:39;;;;;;;27.03;14.60;;;1.80;99.90;;;;;;5092152;28;20220;-75
2022/01/08 06:44:06;;;;;;;28.33;14.70;;;1.80;99.90;;;;;;5091569;28;20204;-75
2022/01/08 06:46:33;;;;;;;27.30;13.97;;;1.70;99.90;;;;;;5095982;28;20208;-75
2022/01/08 06:49:00;;;;;;;27.40;13.90;;;1.70;99.90;;;;;;5095375;28;20202;-75
2022/01/08 06:51:28;;;;;;;28.67;13.93;;;1.70;99.90;;;;;;5090248;28;20230;-75
2022/01/08 06:53:55;;;;;;;28.57;14.93;;;1.60;99.90;;;;;;5088202;28;20218;-75
2022/01/08 06:56:22;;;;;;;27.13;14.27;;;1.50;99.90;;;;;;5095705;28;20204;-75
2022/01/08 06:58:49;;;;;;;25.80;13.90;;;1.50;99.90;;;;;;5091744;28;20270;-75
2022/01/08 07:01:16;;;;;;;25.90;14.03;;;1.40;99.90;;;;;;5090829;28;20243;-75
2022/01/08 07:03:43;;;;;;;26.43;13.90;;;1.50;99.90;;;;;;5088331;28;20221;-75
2022/01/08 07:06:10;;;;;;;23.87;12.77;;;1.50;99.90;;;;;;5097944;28;20655;-75
2022/01/08 07:08:38;;;;;;;28.17;13.60;;;1.50;99.90;;;;;;5089271;28;20656;-76
2022/01/08 07:11:05;;;;;;;25.03;13.43;;;1.60;99.90;;;;;;5094799;28;20202;-76
2022/01/08 07:13:32;;;;;;;28.10;14.30;;;1.60;99.90;;;;;;5094539;28;20198;-75
2022/01/08 07:15:59;;;;;;;27.70;13.17;;;1.60;99.90;;;;;;5091407;28;20212;-75
2022/01/08 07:18:25;;;;;;;24.83;13.13;;;1.40;99.90;;;;;;5097534;28;20215;-75
2022/01/08 07:20:54;;;;;;;28.53;13.63;;;1.40;99.90;;;;;;5094131;28;20197;-75
2022/01/08 07:23:21;;;;;;;26.47;13.57;;;1.40;99.90;;;;;;5097877;28;20225;-75
2022/01/08 07:25:49;;;;;;;25.77;12.90;;;1.30;99.90;;;;;;5092127;28;20208;-75
2022/01/08 07:28:16;;;;;;;28.93;13.03;;;1.20;99.90;;;;;;5092756;28;20537;-75
2022/01/08 07:30:44;;;;;;;27.20;13.33;;;1.20;99.90;;;;;;5098205;28;20197;-75
2022/01/08 07:33:11;;;;;;;27.87;12.97;;;1.20;99.90;;;;;;5092216;28;20721;-75
2022/01/08 07:35:38;;;;;;;27.30;13.27;;;1.30;99.90;;;;;;5092403;28;20572;-75
2022/01/08 07:38:05;;;;;;;29.50;13.63;;;1.30;99.90;;;;;;5096004;28;20202;-75
2022/01/08 07:40:32;;;;;;;25.37;11.93;;;1.20;99.90;;;;;;5091843;28;20664;-75
2022/01/08 07:43:00;;;;;;;29.10;14.17;;;1.10;99.90;;;;;;5096112;28;20201;-75
2022/01/08 07:45:27;;;;;;;27.67;14.20;;;1.30;99.90;;;;;;5102194;28;20202;-75
2022/01/08 07:47:53;;;;;;;28.10;13.17;;;1.20;99.90;;;;;;5093642;28;20220;-74
2022/01/08 07:50:20;;;;;;;28.23;14.00;;;1.20;99.90;;;;;;5098881;28;20632;-74
2022/01/08 07:52:47;;;;;;;29.13;14.63;;;1.20;99.90;;;;;;5101398;28;20217;-74
2022/01/08 07:55:14;;;;;;;34.20;15.53;;;1.20;99.90;;;;;;5096546;28;20228;-74
2022/01/08 07:57:42;;;;;;;26.83;15.10;;;1.30;99.90;;;;;;5098532;28;20734;-74
2022/01/08 08:00:11;;;;;;;29.90;14.63;;;1.40;99.90;;;;;;5096413;28;20207;-74
2022/01/08 08:02:38;;;;;;;29.00;14.27;;;1.30;99.90;;;;;;5092297;28;20783;-74
2022/01/08 08:05:05;;;;;;;30.03;13.90;;;1.30;99.90;;;;;;5091894;28;20201;-74
2022/01/08 08:07:36;;;;;;;34.63;16.30;;;1.30;99.90;;;;;;5097989;28;20204;-74
2022/01/08 08:10:05;;;;;;;31.27;14.90;;;1.40;99.90;;;;;;5095170;28;20556;-74
2022/01/08 08:12:32;;;;;;;31.07;14.90;;;1.40;99.90;;;;;;5097566;28;20218;-74
2022/01/08 08:14:59;;;;;;;33.27;16.00;;;1.40;99.90;;;;;;5096160;28;20577;-74
2022/01/08 08:17:27;;;;;;;34.07;17.10;;;1.50;99.90;;;;;;5094798;28;20202;-74
2022/01/08 08:19:54;;;;;;;29.83;14.70;;;1.50;99.90;;;;;;5092212;28;20207;-74
2022/01/08 08:22:21;;;;;;;35.67;15.47;;;1.60;99.90;;;;;;5095942;28;20198;-74
2022/01/08 08:24:47;;;;;;;33.00;14.50;;;1.60;99.90;;;;;;5095635;28;20209;-74
2022/01/08 08:27:14;;;;;;;34.53;16.17;;;1.80;99.90;;;;;;5103768;28;20295;-74
2022/01/08 08:29:41;;;;;;;34.80;16.13;;;1.90;99.90;;;;;;5095284;28;20201;-74
2022/01/08 08:32:09;;;;;;;31.97;14.57;;;2.10;99.90;;;;;;5096800;28;20218;-74
2022/01/08 08:34:37;;;;;;;30.40;16.03;;;2.10;99.90;;;;;;5088604;28;20235;-74
2022/01/08 08:37:05;;;;;;;31.17;15.10;;;2.00;99.90;;;;;;5093329;28;20198;-75
2022/01/08 08:39:32;;;;;;;32.40;15.27;;;2.20;99.90;;;;;;5096780;28;20201;-73
2022/01/08 08:41:59;;;;;;;30.27;15.07;;;2.20;99.90;;;;;;5096391;28;20642;-74
2022/01/08 08:44:27;;;;;;;30.17;15.53;;;2.30;99.90;;;;;;5092997;28;20603;-73
2022/01/08 08:46:53;;;;;;;30.60;14.40;;;2.30;99.90;;;;;;5101381;28;20243;-74
2022/01/08 08:49:29;;;;;;;32.80;16.10;;;2.50;99.90;;;;;;5097176;28;20551;-72
2022/01/08 08:51:59;;;;;;;32.37;16.40;;;2.40;99.90;;;;;;5096123;28;20225;-72
2022/01/08 08:54:31;;;;;;;32.83;15.47;;;2.50;99.90;;;;;;5091579;28;20198;-73
2022/01/08 08:56:58;;;;;;;30.63;16.30;;;2.50;99.90;;;;;;5095855;28;20204;-73
2022/01/08 08:59:25;;;;;;;30.63;14.73;;;2.50;99.90;;;;;;5093509;28;20572;-74
2022/01/08 09:01:56;;;;;;;29.20;14.33;;;2.50;99.90;;;;;;5096367;28;20284;-69
2022/01/08 09:04:23;;;;;;;31.20;15.17;;;2.50;99.90;;;;;;5095898;28;20205;-72
2022/01/08 09:06:50;;;;;;;33.00;15.10;;;2.50;99.90;;;;;;5088005;28;20202;-75
2022/01/08 09:09:20;;;;;;;30.00;15.07;;;2.50;99.90;;;;;;5093204;28;20512;-74
2022/01/08 09:11:46;;;;;;;29.40;15.97;;;2.60;99.90;;;;;;5101365;28;20217;-74
2022/01/08 09:14:13;;;;;;;31.60;15.17;;;2.80;99.90;;;;;;5102446;28;20662;-74
2022/01/08 09:16:46;;;;;;;31.90;15.53;;;2.70;99.90;;;;;;5100770;28;20205;-74
2022/01/08 09:19:13;;;;;;;32.47;15.50;;;2.70;99.90;;;;;;5103796;28;20197;-74
2022/01/08 09:21:40;;;;;;;32.90;15.97;;;2.70;99.90;;;;;;5093918;28;20215;-74
2022/01/08 09:24:07;;;;;;;30.27;15.27;;;2.90;99.90;;;;;;5099630;28;20579;-74
2022/01/08 09:26:35;;;;;;;33.67;16.80;;;3.00;99.90;;;;;;5095388;28;20663;-74
2022/01/08 09:29:02;;;;;;;32.80;15.57;;;3.10;99.90;;;;;;5092298;28;20240;-75
2022/01/08 09:31:29;;;;;;;34.03;16.20;;;3.10;99.90;;;;;;5096180;28;20202;-75
2022/01/08 09:33:56;;;;;;;33.93;16.37;;;3.00;99.90;;;;;;5094546;28;20228;-75
2022/01/08 09:36:23;;;;;;;31.77;15.93;;;2.90;99.90;;;;;;5099152;28;20205;-75
2022/01/08 09:38:50;;;;;;;32.93;15.73;;;2.90;99.90;;;;;;5103557;28;20672;-75
2022/01/08 09:41:18;;;;;;;30.90;15.80;;;2.80;99.90;;;;;;5098105;28;20237;-75
2022/01/08 09:43:46;;;;;;;31.10;16.03;;;2.80;99.90;;;;;;5099196;28;20204;-75
2022/01/08 09:46:15;;;;;;;34.40;16.60;;;3.00;99.90;;;;;;5094727;28;20207;-75
2022/01/08 09:48:42;;;;;;;32.83;15.23;;;3.20;99.90;;;;;;5096918;28;20204;-75
2022/01/08 09:51:09;;;;;;;32.50;15.93;;;3.40;99.90;;;;;;5099362;28;20206;-76
2022/01/08 09:53:36;;;;;;;29.90;14.43;;;3.30;99.90;;;;;;5087540;28;20583;-76
2022/01/08 09:56:03;;;;;;;29.87;15.57;;;3.30;99.90;;;;;;5097684;28;20204;-75
2022/01/08 09:58:30;;;;;;;32.43;15.93;;;3.40;99.90;;;;;;5107210;28;20208;-78
2022/01/08 10:00:58;;;;;;;30.83;16.67;;;3.30;99.90;;;;;;5093097;28;20606;-77
2022/01/08 10:03:29;;;;;;;29.07;14.87;;;3.40;99.90;;;;;;5091525;28;20209;-75
2022/01/08 10:06:03;;;;;;;28.00;13.40;;;3.50;99.90;;;;;;5102781;28;20295;-75
2022/01/08 10:08:32;;;;;;;30.67;15.47;;;3.60;99.90;;;;;;5090639;28;20214;-79
2022/01/08 10:11:02;;;;;;;29.00;14.70;;;3.80;99.90;;;;;;5098103;28;20208;-78
2022/01/08 10:13:32;;;;;;;26.50;14.50;;;3.70;99.90;;;;;;5086132;28;20229;-78
2022/01/08 10:18:46;;;;;;;27.53;13.30;;;3.70;99.90;;;;;;5093462;28;20576;-72
2022/01/08 10:21:19;;;;;;;28.50;14.10;;;3.50;99.90;;;;;;5091657;28;20216;-72
2022/01/08 10:23:47;;;;;;;43.27;17.30;;;3.60;99.90;;;;;;5089447;28;20201;-73
2022/01/08 10:26:17;;;;;;;28.90;13.43;;;3.70;99.90;;;;;;5092408;28;20197;-73
2022/01/08 10:28:46;;;;;;;30.53;13.30;;;3.70;99.90;;;;;;5103566;28;20209;-71
2022/01/08 10:31:17;;;;;;;28.90;14.03;;;3.50;99.90;;;;;;5093926;28;20209;-71
2022/01/08 10:33:48;;;;;;;25.30;13.87;;;3.50;99.90;;;;;;5089441;28;20229;-71
2022/01/08 10:36:16;;;;;;;26.57;12.37;;;3.50;99.90;;;;;;5094618;28;20208;-72
2022/01/08 10:38:42;;;;;;;24.17;12.70;;;3.60;99.90;;;;;;5096484;28;20211;-71
2022/01/08 10:41:14;;;;;;;26.40;13.50;;;3.60;99.90;;;;;;5100262;28;20211;-72
2022/01/08 10:43:42;;;;;;;28.50;14.30;;;3.50;99.90;;;;;;5094980;28;20193;-71
2022/01/08 10:46:11;;;;;;;28.33;14.23;;;3.60;99.90;;;;;;5093205;28;20291;-72
2022/01/08 10:48:43;;;;;;;32.10;15.33;;;3.60;99.90;;;;;;5092795;28;20237;-72
2022/01/08 10:51:13;;;;;;;31.23;15.43;;;3.60;99.90;;;;;;5096748;28;20204;-72
2022/01/08 10:54:11;;;;;;;27.67;13.67;;;3.60;99.90;;;;;;5091380;28;20224;-72
2022/01/08 10:56:40;;;;;;;32.73;14.27;;;3.60;99.90;;;;;;5076529;28;20201;-73
2022/01/08 10:59:12;;;;;;;24.63;12.77;;;3.70;99.90;;;;;;5098037;28;20200;-72
2022/01/08 11:01:51;;;;;;;28.93;14.60;;;3.60;99.90;;;;;;5092804;28;20201;-73
2022/01/08 11:04:30;;;;;;;27.80;13.60;;;3.60;99.90;;;;;;5099267;28;20253;-72
2022/01/08 11:06:58;;;;;;;25.17;12.37;;;3.60;99.90;;;;;;5092740;28;20212;-72
2022/01/08 11:09:26;;;;;;;31.47;15.30;;;3.60;99.90;;;;;;5104672;28;20212;-73
2022/01/08 11:11:55;;;;;;;29.10;13.97;;;3.70;99.90;;;;;;5099537;28;20210;-73
2022/01/08 11:17:05;;;;;;;28.50;13.47;;;3.70;99.90;;;;;;5070356;28;20238;-72
2022/01/08 11:19:35;;;;;;;27.70;13.30;;;3.60;99.90;;;;;;5102638;28;20570;-72
2022/01/08 11:22:02;;;;;;;27.53;12.90;;;3.60;99.90;;;;;;5095362;28;20671;-72
2022/01/08 11:24:31;;;;;;;28.83;14.07;;;3.60;99.90;;;;;;5086846;28;20194;-73
2022/01/08 11:26:59;;;;;;;25.97;13.10;;;3.60;99.90;;;;;;5095662;28;20772;-72
2022/01/08 11:29:28;;;;;;;32.67;15.23;;;3.60;99.90;;;;;;5098215;28;20584;-72
2022/01/08 11:32:00;;;;;;;36.57;15.80;;;3.80;99.90;;;;;;5100801;28;20659;-73
2022/01/08 11:34:30;;;;;;;34.17;17.33;;;3.90;99.90;;;;;;5101168;28;20231;-73
2022/01/08 11:37:00;;;;;;;34.10;14.97;;;4.00;99.90;;;;;;5094926;28;20580;-73
2022/01/08 11:39:28;;;;;;;31.53;15.40;;;4.10;99.90;;;;;;5103622;28;20541;-73
2022/01/08 11:41:57;;;;;;;34.83;18.40;;;4.10;99.90;;;;;;5095838;28;20740;-73
2022/01/08 11:44:26;;;;;;;30.70;15.97;;;4.00;99.90;;;;;;5091552;28;20584;-72
2022/01/08 11:46:53;;;;;;;33.40;16.30;;;4.00;99.90;;;;;;5103072;28;20696;-72
2022/01/08 11:49:21;;;;;;;32.87;15.57;;;4.00;99.90;;;;;;5099463;28;20573;-72
2022/01/08 11:51:48;;;;;;;31.43;16.10;;;4.10;99.90;;;;;;5098833;28;20409;-72
2022/01/08 11:54:16;;;;;;;32.07;16.33;;;4.00;99.90;;;;;;5098612;28;20602;-72
2022/01/08 11:56:43;;;;;;;33.53;17.13;;;4.10;99.90;;;;;;5107167;28;20208;-72
2022/01/08 11:59:12;;;;;;;32.33;16.90;;;4.00;99.90;;;;;;5100550;28;20265;-72
2022/01/08 12:01:40;;;;;;;30.43;16.90;;;3.90;99.90;;;;;;5096375;28;20281;-72
2022/01/08 12:04:07;;;;;;;32.37;16.90;;;4.00;99.90;;;;;;5096270;28;20201;-73
2022/01/08 12:06:38;;;;;;;32.47;15.53;;;4.10;99.90;;;;;;5103613;28;20209;-73
2022/01/08 12:09:24;;;;;;;33.70;17.43;;;4.10;99.90;;;;;;5094684;28;20241;-73
2022/01/08 12:11:57;;;;;;;34.33;17.27;;;4.10;99.90;;;;;;5092752;28;20755;-73
2022/01/08 12:14:26;;;;;;;30.43;17.00;;;4.10;99.90;;;;;;5090750;28;20220;-73
2022/01/08 12:16:54;;;;;;;30.53;15.80;;;4.30;99.90;;;;;;5095452;28;20206;-73
2022/01/08 12:19:36;;;;;;;34.80;15.23;;;4.30;99.90;;;;;;5098676;28;20679;-73
2022/01/08 12:22:33;;;;;;;30.73;15.43;;;4.30;99.90;;;;;;5090582;28;20737;-73
2022/01/08 12:25:03;;;;;;;30.33;14.13;;;4.20;99.90;;;;;;5093610;28;20561;-73
2022/01/08 12:27:45;;;;;;;29.47;15.30;;;4.10;99.90;;;;;;5098471;28;20208;-73
2022/01/08 12:30:35;;;;;;;29.77;14.73;;;3.90;99.90;;;;;;5096233;28;20208;-73
2022/01/08 12:33:17;;;;;;;31.20;16.77;;;4.00;99.90;;;;;;5101790;28;20263;-74
2022/01/08 12:35:43;;;;;;;28.90;13.73;;;4.20;99.90;;;;;;5099425;28;20201;-74
2022/01/08 12:38:29;;;;;;;25.90;13.13;;;4.30;99.90;;;;;;5106063;28;20211;-73
2022/01/08 12:40:57;;;;;;;30.37;12.77;;;4.20;99.90;;;;;;5092355;28;20213;-73
2022/01/08 12:43:34;;;;;;;26.40;12.20;;;4.20;99.90;;;;;;5101438;28;20804;-73
2022/01/08 12:46:22;;;;;;;22.27;11.30;;;4.40;99.90;;;;;;5102444;28;20677;-73
2022/01/08 12:49:14;;;;;;;30.83;12.50;;;4.20;99.90;;;;;;5097320;28;20699;-73
2022/01/08 12:52:04;;;;;;;26.37;12.40;;;4.10;99.90;;;;;;5100619;28;20263;-73
2022/01/08 12:54:32;;;;;;;25.73;12.33;;;4.10;99.90;;;;;;5093775;28;20221;-73
2022/01/08 12:57:05;;;;;;;24.03;11.57;;;4.10;99.90;;;;;;5102714;28;20212;-72
2022/01/08 12:59:38;;;;;;;25.23;12.63;;;4.10;99.90;;;;;;5099107;28;20205;-74
2022/01/08 13:02:08;;;;;;;22.60;12.33;;;4.10;99.90;;;;;;5087187;28;20621;-73
2022/01/08 13:04:35;;;;;;;24.07;12.63;;;4.20;99.90;;;;;;5097410;28;20201;-73
2022/01/08 13:07:02;;;;;;;24.10;12.50;;;4.20;99.90;;;;;;5103482;28;20213;-73
2022/01/08 13:09:29;;;;;;;25.30;13.33;;;4.20;99.90;;;;;;5101542;28;20201;-74
2022/01/08 13:11:57;;;;;;;28.07;14.77;;;4.30;99.90;;;;;;5090958;28;20202;-73